sensor_id;sensor_type;location;lat;lon;timestamp;temperature;humidity
52495;DHT22;38405;53.212;5.660;2023-12-14T00:02:00;5.00;99.90
52495;DHT22;38405;53.212;5.660;2023-12-14T00:04:25;5.40;99.90
52495;DHT22;38405;53.212;5.660;2023-12-14T00:06:51;5.50;99.90
52495;DHT22;38405;53.212;5.660;2023-12-14T00:09:16;5.10;99.90
52495;DHT22;38405;53.212;5.660;2023-12-14T00:11:42;5.60;99.90
52495;DHT22;38405;53.212;5.660;2023-12-14T00:14:08;5.10;99.90
52495;DHT22;38405;53.212;5.660;2023-12-14T00:16:33;5.00;99.90
52495;DHT22;38405;53.212;5.660;2023-12-14T00:18:59;5.00;99.90
52495;DHT22;38405;53.212;5.660;2023-12-14T00:21:25;5.50;99.90
52495;DHT22;38405;53.212;5.660;2023-12-14T00:23:50;5.40;99.90
52495;DHT22;38405;53.212;5.660;2023-12-14T00:26:16;5.00;99.90
52495;DHT22;38405;53.212;5.660;2023-12-14T00:28:43;5.00;99.90
52495;DHT22;38405;53.212;5.660;2023-12-14T00:31:08;5.50;99.90
52495;DHT22;38405;53.212;5.660;2023-12-14T00:33:34;5.00;99.90
52495;DHT22;38405;53.212;5.660;2023-12-14T00:36:00;5.50;99.90
52495;DHT22;38405;53.212;5.660;2023-12-14T00:38:25;4.60;99.90
52495;DHT22;38405;53.212;5.660;2023-12-14T00:40:51;5.50;99.90
52495;DHT22;38405;53.212;5.660;2023-12-14T00:43:17;5.00;99.90
52495;DHT22;38405;53.212;5.660;2023-12-14T00:45:42;5.00;99.90
52495;DHT22;38405;53.212;5.660;2023-12-14T00:48:08;4.90;99.90
52495;DHT22;38405;53.212;5.660;2023-12-14T00:50:33;4.90;99.90
52495;DHT22;38405;53.212;5.660;2023-12-14T00:52:59;5.00;99.90
52495;DHT22;38405;53.212;5.660;2023-12-14T00:55:25;5.00;99.90
52495;DHT22;38405;53.212;5.660;2023-12-14T00:57:50;5.20;99.90
52495;DHT22;38405;53.212;5.660;2023-12-14T01:00:16;5.30;99.90
52495;DHT22;38405;53.212;5.660;2023-12-14T01:02:42;4.90;99.90
52495;DHT22;38405;53.212;5.660;2023-12-14T01:05:08;5.30;99.90
52495;DHT22;38405;53.212;5.660;2023-12-14T01:07:33;4.90;99.90
52495;DHT22;38405;53.212;5.660;2023-12-14T01:09:59;4.90;99.90
52495;DHT22;38405;53.212;5.660;2023-12-14T01:12:25;4.90;99.90
52495;DHT22;38405;53.212;5.660;2023-12-14T01:14:50;4.90;99.90
52495;DHT22;38405;53.212;5.660;2023-12-14T01:17:16;4.90;99.90
52495;DHT22;38405;53.212;5.660;2023-12-14T01:19:42;4.90;99.90
52495;DHT22;38405;53.212;5.660;2023-12-14T01:22:07;4.90;99.90
52495;DHT22;38405;53.212;5.660;2023-12-14T01:24:33;4.90;99.90
52495;DHT22;38405;53.212;5.660;2023-12-14T01:26:59;4.90;99.90
52495;DHT22;38405;53.212;5.660;2023-12-14T01:29:24;5.50;99.90
52495;DHT22;38405;53.212;5.660;2023-12-14T01:31:50;5.20;99.90
52495;DHT22;38405;53.212;5.660;2023-12-14T01:34:15;4.90;99.90
52495;DHT22;38405;53.212;5.660;2023-12-14T01:36:41;4.90;99.90
52495;DHT22;38405;53.212;5.660;2023-12-14T01:39:07;5.30;99.90
52495;DHT22;38405;53.212;5.660;2023-12-14T01:41:33;4.90;99.90
52495;DHT22;38405;53.212;5.660;2023-12-14T01:43:59;4.90;99.90
52495;DHT22;38405;53.212;5.660;2023-12-14T01:46:24;4.90;99.90
52495;DHT22;38405;53.212;5.660;2023-12-14T01:48:50;5.30;99.90
52495;DHT22;38405;53.212;5.660;2023-12-14T01:51:17;4.90;99.90
52495;DHT22;38405;53.212;5.660;2023-12-14T01:53:43;4.90;99.90
52495;DHT22;38405;53.212;5.660;2023-12-14T01:56:08;4.90;99.90
52495;DHT22;38405;53.212;5.660;2023-12-14T01:58:34;4.90;99.90
52495;DHT22;38405;53.212;5.660;2023-12-14T02:03:35;5.50;99.90
52495;DHT22;38405;53.212;5.660;2023-12-14T02:06:00;4.90;99.90
52495;DHT22;38405;53.212;5.660;2023-12-14T02:08:27;5.50;99.90
52495;DHT22;38405;53.212;5.660;2023-12-14T02:10:54;5.50;99.90
52495;DHT22;38405;53.212;5.660;2023-12-14T02:13:20;4.90;99.90
52495;DHT22;38405;53.212;5.660;2023-12-14T02:15:45;5.00;99.90
52495;DHT22;38405;53.212;5.660;2023-12-14T02:18:12;4.90;99.90
52495;DHT22;38405;53.212;5.660;2023-12-14T02:20:38;4.90;99.90
52495;DHT22;38405;53.212;5.660;2023-12-14T02:23:03;4.90;99.90
52495;DHT22;38405;53.212;5.660;2023-12-14T02:25:29;4.90;99.90
52495;DHT22;38405;53.212;5.660;2023-12-14T02:27:55;5.40;99.90
52495;DHT22;38405;53.212;5.660;2023-12-14T02:30:20;4.90;99.90
52495;DHT22;38405;53.212;5.660;2023-12-14T02:32:46;5.00;99.90
52495;DHT22;38405;53.212;5.660;2023-12-14T02:35:11;5.00;99.90
52495;DHT22;38405;53.212;5.660;2023-12-14T02:37:37;5.40;99.90
52495;DHT22;38405;53.212;5.660;2023-12-14T02:40:04;4.90;99.90
52495;DHT22;38405;53.212;5.660;2023-12-14T02:42:30;4.90;99.90
52495;DHT22;38405;53.212;5.660;2023-12-14T02:44:56;5.00;99.90
52495;DHT22;38405;53.212;5.660;2023-12-14T02:47:22;5.10;99.90
52495;DHT22;38405;53.212;5.660;2023-12-14T02:49:48;5.00;99.90
52495;DHT22;38405;53.212;5.660;2023-12-14T02:52:13;4.90;99.90
52495;DHT22;38405;53.212;5.660;2023-12-14T02:54:39;5.10;99.90
52495;DHT22;38405;53.212;5.660;2023-12-14T02:57:05;5.00;99.90
52495;DHT22;38405;53.212;5.660;2023-12-14T02:59:31;5.00;99.90
52495;DHT22;38405;53.212;5.660;2023-12-14T03:01:57;4.90;99.90
52495;DHT22;38405;53.212;5.660;2023-12-14T03:04:22;4.90;99.90
52495;DHT22;38405;53.212;5.660;2023-12-14T03:06:48;5.00;99.90
52495;DHT22;38405;53.212;5.660;2023-12-14T03:09:13;5.50;99.90
52495;DHT22;38405;53.212;5.660;2023-12-14T03:11:39;4.90;99.90
52495;DHT22;38405;53.212;5.660;2023-12-14T03:14:05;5.20;99.90
52495;DHT22;38405;53.212;5.660;2023-12-14T03:16:31;4.90;99.90
52495;DHT22;38405;53.212;5.660;2023-12-14T03:18:56;4.90;99.90
52495;DHT22;38405;53.212;5.660;2023-12-14T03:21:22;5.30;99.90
52495;DHT22;38405;53.212;5.660;2023-12-14T03:23:52;4.90;99.90
52495;DHT22;38405;53.212;5.660;2023-12-14T03:26:17;4.90;99.90
52495;DHT22;38405;53.212;5.660;2023-12-14T03:28:43;4.90;99.90
52495;DHT22;38405;53.212;5.660;2023-12-14T03:31:12;4.90;99.90
52495;DHT22;38405;53.212;5.660;2023-12-14T03:33:39;4.90;99.90
52495;DHT22;38405;53.212;5.660;2023-12-14T03:36:05;4.90;99.90
52495;DHT22;38405;53.212;5.660;2023-12-14T03:38:31;4.90;99.90
52495;DHT22;38405;53.212;5.660;2023-12-14T03:40:57;4.90;99.90
52495;DHT22;38405;53.212;5.660;2023-12-14T03:43:23;4.90;99.90
52495;DHT22;38405;53.212;5.660;2023-12-14T03:45:48;5.30;99.90
52495;DHT22;38405;53.212;5.660;2023-12-14T03:48:14;4.90;99.90
52495;DHT22;38405;53.212;5.660;2023-12-14T03:50:40;4.90;99.90
52495;DHT22;38405;53.212;5.660;2023-12-14T03:53:06;4.90;99.90
52495;DHT22;38405;53.212;5.660;2023-12-14T03:55:32;5.00;99.90
52495;DHT22;38405;53.212;5.660;2023-12-14T03:57:58;4.90;99.90
52495;DHT22;38405;53.212;5.660;2023-12-14T04:00:23;4.90;99.90
52495;DHT22;38405;53.212;5.660;2023-12-14T04:02:49;4.90;99.90
52495;DHT22;38405;53.212;5.660;2023-12-14T04:05:15;5.40;99.90
52495;DHT22;38405;53.212;5.660;2023-12-14T04:07:41;4.90;99.90
52495;DHT22;38405;53.212;5.660;2023-12-14T04:10:07;5.20;99.90
52495;DHT22;38405;53.212;5.660;2023-12-14T04:12:34;4.90;99.90
52495;DHT22;38405;53.212;5.660;2023-12-14T04:15:00;4.90;99.90
52495;DHT22;38405;53.212;5.660;2023-12-14T04:17:26;4.90;99.90
52495;DHT22;38405;53.212;5.660;2023-12-14T04:19:52;4.90;99.90
52495;DHT22;38405;53.212;5.660;2023-12-14T04:22:17;4.90;99.90
52495;DHT22;38405;53.212;5.660;2023-12-14T04:24:43;4.90;99.90
52495;DHT22;38405;53.212;5.660;2023-12-14T04:27:09;4.90;99.90
52495;DHT22;38405;53.212;5.660;2023-12-14T04:29:34;4.90;99.90
52495;DHT22;38405;53.212;5.660;2023-12-14T04:32:00;5.60;99.90
52495;DHT22;38405;53.212;5.660;2023-12-14T04:34:25;4.90;99.90
52495;DHT22;38405;53.212;5.660;2023-12-14T04:36:51;4.90;99.90
52495;DHT22;38405;53.212;5.660;2023-12-14T04:39:18;4.90;99.90
52495;DHT22;38405;53.212;5.660;2023-12-14T04:41:44;4.90;99.90
52495;DHT22;38405;53.212;5.660;2023-12-14T04:44:09;4.90;99.90
52495;DHT22;38405;53.212;5.660;2023-12-14T04:46:36;4.90;99.90
52495;DHT22;38405;53.212;5.660;2023-12-14T04:49:02;4.80;99.90
52495;DHT22;38405;53.212;5.660;2023-12-14T04:51:28;4.90;99.90
52495;DHT22;38405;53.212;5.660;2023-12-14T04:53:53;4.90;99.90
52495;DHT22;38405;53.212;5.660;2023-12-14T04:56:19;4.90;99.90
52495;DHT22;38405;53.212;5.660;2023-12-14T04:58:45;4.90;99.90
52495;DHT22;38405;53.212;5.660;2023-12-14T05:01:11;4.80;99.90
52495;DHT22;38405;53.212;5.660;2023-12-14T05:03:37;4.80;99.90
52495;DHT22;38405;53.212;5.660;2023-12-14T05:06:03;4.80;99.90
52495;DHT22;38405;53.212;5.660;2023-12-14T05:08:29;4.90;99.90
52495;DHT22;38405;53.212;5.660;2023-12-14T05:10:54;4.90;99.90
52495;DHT22;38405;53.212;5.660;2023-12-14T05:13:20;4.90;99.90
52495;DHT22;38405;53.212;5.660;2023-12-14T05:15:46;4.90;99.90
52495;DHT22;38405;53.212;5.660;2023-12-14T05:18:11;4.90;99.90
52495;DHT22;38405;53.212;5.660;2023-12-14T05:20:37;4.90;99.90
52495;DHT22;38405;53.212;5.660;2023-12-14T05:23:03;4.90;99.90
52495;DHT22;38405;53.212;5.660;2023-12-14T05:25:28;5.20;99.90
52495;DHT22;38405;53.212;5.660;2023-12-14T05:27:54;5.10;99.90
52495;DHT22;38405;53.212;5.660;2023-12-14T05:30:20;4.90;99.90
52495;DHT22;38405;53.212;5.660;2023-12-14T05:32:45;4.90;99.90
52495;DHT22;38405;53.212;5.660;2023-12-14T05:35:12;4.80;99.90
52495;DHT22;38405;53.212;5.660;2023-12-14T05:37:41;4.90;99.90
52495;DHT22;38405;53.212;5.660;2023-12-14T05:40:08;4.80;99.90
52495;DHT22;38405;53.212;5.660;2023-12-14T05:42:34;4.90;99.90
52495;DHT22;38405;53.212;5.660;2023-12-14T05:45:00;4.90;99.90
52495;DHT22;38405;53.212;5.660;2023-12-14T05:47:26;4.80;99.90
52495;DHT22;38405;53.212;5.660;2023-12-14T05:49:52;4.90;99.90
52495;DHT22;38405;53.212;5.660;2023-12-14T05:52:18;4.90;99.90
52495;DHT22;38405;53.212;5.660;2023-12-14T05:54:43;4.90;99.90
52495;DHT22;38405;53.212;5.660;2023-12-14T05:57:09;4.90;99.90
52495;DHT22;38405;53.212;5.660;2023-12-14T05:59:38;4.90;99.90
52495;DHT22;38405;53.212;5.660;2023-12-14T06:02:04;4.90;99.90
52495;DHT22;38405;53.212;5.660;2023-12-14T06:04:30;5.20;99.90
52495;DHT22;38405;53.212;5.660;2023-12-14T06:06:56;5.00;99.90
52495;DHT22;38405;53.212;5.660;2023-12-14T06:09:22;4.90;99.90
52495;DHT22;38405;53.212;5.660;2023-12-14T06:11:52;4.90;99.90
52495;DHT22;38405;53.212;5.660;2023-12-14T06:14:17;4.80;99.90
52495;DHT22;38405;53.212;5.660;2023-12-14T06:16:43;4.90;99.90
52495;DHT22;38405;53.212;5.660;2023-12-14T06:19:09;4.80;99.90
52495;DHT22;38405;53.212;5.660;2023-12-14T06:21:35;4.90;99.90
52495;DHT22;38405;53.212;5.660;2023-12-14T06:24:00;4.90;99.90
52495;DHT22;38405;53.212;5.660;2023-12-14T06:26:26;4.90;99.90
52495;DHT22;38405;53.212;5.660;2023-12-14T06:28:52;4.90;99.90
52495;DHT22;38405;53.212;5.660;2023-12-14T06:31:18;4.90;99.90
52495;DHT22;38405;53.212;5.660;2023-12-14T06:33:47;5.00;99.90
52495;DHT22;38405;53.212;5.660;2023-12-14T06:36:15;4.90;99.90
52495;DHT22;38405;53.212;5.660;2023-12-14T06:38:42;4.90;99.90
52495;DHT22;38405;53.212;5.660;2023-12-14T06:41:08;4.80;99.90
52495;DHT22;38405;53.212;5.660;2023-12-14T06:43:34;4.80;99.90
52495;DHT22;38405;53.212;5.660;2023-12-14T06:46:00;4.90;99.90
52495;DHT22;38405;53.212;5.660;2023-12-14T06:48:26;4.90;99.90
52495;DHT22;38405;53.212;5.660;2023-12-14T06:50:51;4.80;99.90
52495;DHT22;38405;53.212;5.660;2023-12-14T06:53:20;4.80;99.90
52495;DHT22;38405;53.212;5.660;2023-12-14T06:55:45;4.80;99.90
52495;DHT22;38405;53.212;5.660;2023-12-14T06:58:11;4.80;99.90
52495;DHT22;38405;53.212;5.660;2023-12-14T07:00:40;4.90;99.90
52495;DHT22;38405;53.212;5.660;2023-12-14T07:03:05;4.90;99.90
52495;DHT22;38405;53.212;5.660;2023-12-14T07:05:31;4.90;99.90
52495;DHT22;38405;53.212;5.660;2023-12-14T07:07:58;4.90;99.90
52495;DHT22;38405;53.212;5.660;2023-12-14T07:10:24;4.80;99.90
52495;DHT22;38405;53.212;5.660;2023-12-14T07:12:50;4.90;99.90
52495;DHT22;38405;53.212;5.660;2023-12-14T07:15:16;4.90;99.90
52495;DHT22;38405;53.212;5.660;2023-12-14T07:17:41;5.10;99.90
52495;DHT22;38405;53.212;5.660;2023-12-14T07:20:07;4.90;99.90
52495;DHT22;38405;53.212;5.660;2023-12-14T07:22:33;4.90;99.90
52495;DHT22;38405;53.212;5.660;2023-12-14T07:24:59;4.90;99.90
52495;DHT22;38405;53.212;5.660;2023-12-14T07:27:24;4.90;99.90
52495;DHT22;38405;53.212;5.660;2023-12-14T07:29:50;4.90;99.90
52495;DHT22;38405;53.212;5.660;2023-12-14T07:32:16;4.90;99.90
52495;DHT22;38405;53.212;5.660;2023-12-14T07:34:41;5.20;99.90
52495;DHT22;38405;53.212;5.660;2023-12-14T07:37:07;5.20;99.90
52495;DHT22;38405;53.212;5.660;2023-12-14T07:39:33;4.80;99.90
52495;DHT22;38405;53.212;5.660;2023-12-14T07:41:59;4.80;99.90
52495;DHT22;38405;53.212;5.660;2023-12-14T07:44:25;4.80;99.90
52495;DHT22;38405;53.212;5.660;2023-12-14T07:46:51;4.80;99.90
52495;DHT22;38405;53.212;5.660;2023-12-14T07:49:17;4.80;99.90
52495;DHT22;38405;53.212;5.660;2023-12-14T07:51:47;4.90;99.90
52495;DHT22;38405;53.212;5.660;2023-12-14T07:54:13;5.10;99.90
52495;DHT22;38405;53.212;5.660;2023-12-14T07:56:39;4.80;99.90
52495;DHT22;38405;53.212;5.660;2023-12-14T07:59:05;4.80;99.90
52495;DHT22;38405;53.212;5.660;2023-12-14T08:01:33;4.80;99.90
52495;DHT22;38405;53.212;5.660;2023-12-14T08:03:59;4.90;99.90
52495;DHT22;38405;53.212;5.660;2023-12-14T08:06:25;4.90;99.90
52495;DHT22;38405;53.212;5.660;2023-12-14T08:08:51;4.80;99.90
52495;DHT22;38405;53.212;5.660;2023-12-14T08:11:16;4.80;99.90
52495;DHT22;38405;53.212;5.660;2023-12-14T08:13:42;4.90;99.90
52495;DHT22;38405;53.212;5.660;2023-12-14T08:16:08;4.90;99.90
52495;DHT22;38405;53.212;5.660;2023-12-14T08:18:34;4.90;99.90
52495;DHT22;38405;53.212;5.660;2023-12-14T08:20:59;4.90;99.90
52495;DHT22;38405;53.212;5.660;2023-12-14T08:23:25;4.90;99.90
52495;DHT22;38405;53.212;5.660;2023-12-14T08:25:56;4.90;99.90
52495;DHT22;38405;53.212;5.660;2023-12-14T08:28:25;5.30;99.90
52495;DHT22;38405;53.212;5.660;2023-12-14T08:30:51;5.00;99.90
52495;DHT22;38405;53.212;5.660;2023-12-14T08:33:17;4.90;99.90
52495;DHT22;38405;53.212;5.660;2023-12-14T08:35:43;4.90;99.90
52495;DHT22;38405;53.212;5.660;2023-12-14T08:38:09;5.10;99.90
52495;DHT22;38405;53.212;5.660;2023-12-14T08:40:35;5.00;99.90
52495;DHT22;38405;53.212;5.660;2023-12-14T08:43:01;4.90;99.90
52495;DHT22;38405;53.212;5.660;2023-12-14T08:45:28;4.90;99.90
52495;DHT22;38405;53.212;5.660;2023-12-14T08:47:54;4.90;99.90
52495;DHT22;38405;53.212;5.660;2023-12-14T08:50:19;4.80;99.90
52495;DHT22;38405;53.212;5.660;2023-12-14T08:52:45;4.80;99.90
52495;DHT22;38405;53.212;5.660;2023-12-14T08:55:11;4.80;99.90
52495;DHT22;38405;53.212;5.660;2023-12-14T08:57:37;4.70;99.90
52495;DHT22;38405;53.212;5.660;2023-12-14T09:00:02;4.60;99.90
52495;DHT22;38405;53.212;5.660;2023-12-14T09:02:32;4.70;99.90
52495;DHT22;38405;53.212;5.660;2023-12-14T09:04:58;4.70;99.90
52495;DHT22;38405;53.212;5.660;2023-12-14T09:07:24;5.20;99.90
52495;DHT22;38405;53.212;5.660;2023-12-14T09:09:49;4.80;99.90
52495;DHT22;38405;53.212;5.660;2023-12-14T09:12:15;5.10;99.90
52495;DHT22;38405;53.212;5.660;2023-12-14T09:14:41;5.40;99.90
52495;DHT22;38405;53.212;5.660;2023-12-14T09:17:06;5.60;99.90
52495;DHT22;38405;53.212;5.660;2023-12-14T09:19:32;5.90;99.90
52495;DHT22;38405;53.212;5.660;2023-12-14T09:21:58;6.00;99.90
52495;DHT22;38405;53.212;5.660;2023-12-14T09:24:24;6.50;99.90
52495;DHT22;38405;53.212;5.660;2023-12-14T09:26:49;6.40;99.90
52495;DHT22;38405;53.212;5.660;2023-12-14T09:29:15;7.20;99.90
52495;DHT22;38405;53.212;5.660;2023-12-14T09:31:42;7.00;99.90
52495;DHT22;38405;53.212;5.660;2023-12-14T09:34:09;7.20;99.90
52495;DHT22;38405;53.212;5.660;2023-12-14T09:36:35;7.40;99.90
52495;DHT22;38405;53.212;5.660;2023-12-14T09:39:00;7.60;99.90
52495;DHT22;38405;53.212;5.660;2023-12-14T09:41:26;7.80;99.90
52495;DHT22;38405;53.212;5.660;2023-12-14T09:43:52;8.00;99.90
52495;DHT22;38405;53.212;5.660;2023-12-14T09:46:18;8.20;99.90
52495;DHT22;38405;53.212;5.660;2023-12-14T09:48:46;8.50;99.90
52495;DHT22;38405;53.212;5.660;2023-12-14T09:51:12;8.40;99.90
52495;DHT22;38405;53.212;5.660;2023-12-14T09:53:38;8.60;99.90
52495;DHT22;38405;53.212;5.660;2023-12-14T09:56:04;8.70;99.90
52495;DHT22;38405;53.212;5.660;2023-12-14T09:58:33;8.80;99.90
52495;DHT22;38405;53.212;5.660;2023-12-14T10:00:59;9.00;99.90
52495;DHT22;38405;53.212;5.660;2023-12-14T10:03:28;9.00;99.90
52495;DHT22;38405;53.212;5.660;2023-12-14T10:05:58;9.20;99.90
52495;DHT22;38405;53.212;5.660;2023-12-14T10:08:24;9.30;99.90
52495;DHT22;38405;53.212;5.660;2023-12-14T10:10:54;9.30;99.90
52495;DHT22;38405;53.212;5.660;2023-12-14T10:13:22;9.40;99.90
52495;DHT22;38405;53.212;5.660;2023-12-14T10:16:00;9.50;99.90
52495;DHT22;38405;53.212;5.660;2023-12-14T10:18:26;9.50;99.90
52495;DHT22;38405;53.212;5.660;2023-12-14T10:20:52;9.60;99.90
52495;DHT22;38405;53.212;5.660;2023-12-14T10:23:18;9.50;99.90
52495;DHT22;38405;53.212;5.660;2023-12-14T10:25:44;9.60;99.90
52495;DHT22;38405;53.212;5.660;2023-12-14T10:28:14;9.50;99.90
52495;DHT22;38405;53.212;5.660;2023-12-14T10:30:41;9.50;99.90
52495;DHT22;38405;53.212;5.660;2023-12-14T10:33:06;9.20;99.90
52495;DHT22;38405;53.212;5.660;2023-12-14T10:35:32;9.00;99.90
52495;DHT22;38405;53.212;5.660;2023-12-14T10:38:02;8.70;99.90
52495;DHT22;38405;53.212;5.660;2023-12-14T10:40:28;8.60;99.90
52495;DHT22;38405;53.212;5.660;2023-12-14T10:42:58;8.40;99.90
52495;DHT22;38405;53.212;5.660;2023-12-14T10:45:29;8.10;99.90
52495;DHT22;38405;53.212;5.660;2023-12-14T10:47:55;7.90;99.90
52495;DHT22;38405;53.212;5.660;2023-12-14T10:50:22;7.70;99.90
52495;DHT22;38405;53.212;5.660;2023-12-14T10:52:49;7.60;99.90
52495;DHT22;38405;53.212;5.660;2023-12-14T10:55:38;7.40;99.90
52495;DHT22;38405;53.212;5.660;2023-12-14T10:58:07;7.30;99.90
52495;DHT22;38405;53.212;5.660;2023-12-14T11:00:33;7.10;99.90
52495;DHT22;38405;53.212;5.660;2023-12-14T11:02:59;7.10;99.90
52495;DHT22;38405;53.212;5.660;2023-12-14T11:05:28;7.10;99.90
52495;DHT22;38405;53.212;5.660;2023-12-14T11:08:05;7.00;99.90
52495;DHT22;38405;53.212;5.660;2023-12-14T11:10:52;6.90;99.90
52495;DHT22;38405;53.212;5.660;2023-12-14T11:13:18;6.90;99.90
52495;DHT22;38405;53.212;5.660;2023-12-14T11:15:51;6.80;99.90
52495;DHT22;38405;53.212;5.660;2023-12-14T11:25:59;7.50;99.90
52495;DHT22;38405;53.212;5.660;2023-12-14T11:28:32;7.10;99.90
52495;DHT22;38405;53.212;5.660;2023-12-14T11:30:58;7.70;99.90
52495;DHT22;38405;53.212;5.660;2023-12-14T11:33:24;7.70;99.90
52495;DHT22;38405;53.212;5.660;2023-12-14T11:35:52;7.50;99.90
52495;DHT22;38405;53.212;5.660;2023-12-14T11:38:19;7.00;99.90
52495;DHT22;38405;53.212;5.660;2023-12-14T11:40:47;7.00;99.90
52495;DHT22;38405;53.212;5.660;2023-12-14T11:43:13;6.90;99.90
52495;DHT22;38405;53.212;5.660;2023-12-14T11:45:41;7.20;99.90
52495;DHT22;38405;53.212;5.660;2023-12-14T11:48:10;6.80;99.90
52495;DHT22;38405;53.212;5.660;2023-12-14T11:50:38;6.70;99.90
52495;DHT22;38405;53.212;5.660;2023-12-14T11:53:04;6.80;99.90
52495;DHT22;38405;53.212;5.660;2023-12-14T11:55:31;6.70;99.90
52495;DHT22;38405;53.212;5.660;2023-12-14T11:57:57;6.70;99.90
52495;DHT22;38405;53.212;5.660;2023-12-14T12:00:25;6.60;99.90
52495;DHT22;38405;53.212;5.660;2023-12-14T12:02:51;6.60;99.90
52495;DHT22;38405;53.212;5.660;2023-12-14T12:05:16;6.70;99.90
52495;DHT22;38405;53.212;5.660;2023-12-14T12:07:45;6.50;99.90
52495;DHT22;38405;53.212;5.660;2023-12-14T12:10:11;6.50;99.90
52495;DHT22;38405;53.212;5.660;2023-12-14T12:12:37;6.50;99.90
52495;DHT22;38405;53.212;5.660;2023-12-14T12:15:04;6.60;99.90
52495;DHT22;38405;53.212;5.660;2023-12-14T12:17:29;6.50;99.90
52495;DHT22;38405;53.212;5.660;2023-12-14T12:19:57;6.50;99.90
52495;DHT22;38405;53.212;5.660;2023-12-14T12:22:23;6.50;99.90
52495;DHT22;38405;53.212;5.660;2023-12-14T12:24:48;6.50;99.90
52495;DHT22;38405;53.212;5.660;2023-12-14T12:27:14;6.50;99.90
52495;DHT22;38405;53.212;5.660;2023-12-14T12:29:40;6.50;99.90
52495;DHT22;38405;53.212;5.660;2023-12-14T12:32:05;6.60;99.90
52495;DHT22;38405;53.212;5.660;2023-12-14T12:34:31;6.60;99.90
52495;DHT22;38405;53.212;5.660;2023-12-14T12:36:56;6.60;99.90
52495;DHT22;38405;53.212;5.660;2023-12-14T12:39:24;6.70;99.90
52495;DHT22;38405;53.212;5.660;2023-12-14T12:41:49;6.70;99.90
52495;DHT22;38405;53.212;5.660;2023-12-14T12:44:16;6.60;99.90
52495;DHT22;38405;53.212;5.660;2023-12-14T12:46:42;7.00;99.90
52495;DHT22;38405;53.212;5.660;2023-12-14T12:49:08;6.60;99.90
52495;DHT22;38405;53.212;5.660;2023-12-14T12:51:33;6.60;99.90
52495;DHT22;38405;53.212;5.660;2023-12-14T12:54:00;6.50;99.90
52495;DHT22;38405;53.212;5.660;2023-12-14T12:56:27;6.80;99.90
52495;DHT22;38405;53.212;5.660;2023-12-14T12:58:53;6.50;99.90
52495;DHT22;38405;53.212;5.660;2023-12-14T13:01:22;6.70;99.90
52495;DHT22;38405;53.212;5.660;2023-12-14T13:03:55;6.60;99.90
52495;DHT22;38405;53.212;5.660;2023-12-14T13:06:23;6.70;99.90
52495;DHT22;38405;53.212;5.660;2023-12-14T13:08:49;6.60;99.90
52495;DHT22;38405;53.212;5.660;2023-12-14T13:11:15;6.70;99.90
52495;DHT22;38405;53.212;5.660;2023-12-14T13:13:41;6.50;99.90
52495;DHT22;38405;53.212;5.660;2023-12-14T13:16:07;6.50;99.90
52495;DHT22;38405;53.212;5.660;2023-12-14T13:18:32;6.40;99.90
52495;DHT22;38405;53.212;5.660;2023-12-14T13:20:58;6.50;99.90
52495;DHT22;38405;53.212;5.660;2023-12-14T13:23:23;6.50;99.90
52495;DHT22;38405;53.212;5.660;2023-12-14T13:25:49;6.50;99.90
52495;DHT22;38405;53.212;5.660;2023-12-14T13:28:15;6.50;99.90
52495;DHT22;38405;53.212;5.660;2023-12-14T13:30:41;6.30;99.90
52495;DHT22;38405;53.212;5.660;2023-12-14T13:33:07;6.30;99.90
52495;DHT22;38405;53.212;5.660;2023-12-14T13:35:36;6.40;99.90
52495;DHT22;38405;53.212;5.660;2023-12-14T13:38:02;5.90;99.90
52495;DHT22;38405;53.212;5.660;2023-12-14T13:40:27;5.90;99.90
52495;DHT22;38405;53.212;5.660;2023-12-14T13:42:53;5.80;99.90
52495;DHT22;38405;53.212;5.660;2023-12-14T13:45:19;5.70;99.90
52495;DHT22;38405;53.212;5.660;2023-12-14T13:47:44;5.60;99.90
52495;DHT22;38405;53.212;5.660;2023-12-14T13:50:10;5.60;99.90
52495;DHT22;38405;53.212;5.660;2023-12-14T13:52:36;5.80;99.90
52495;DHT22;38405;53.212;5.660;2023-12-14T13:55:01;5.60;99.90
52495;DHT22;38405;53.212;5.660;2023-12-14T13:57:27;5.60;99.90
52495;DHT22;38405;53.212;5.660;2023-12-14T13:59:53;5.50;99.90
52495;DHT22;38405;53.212;5.660;2023-12-14T14:02:19;5.50;99.90
52495;DHT22;38405;53.212;5.660;2023-12-14T14:04:44;5.40;99.90
52495;DHT22;38405;53.212;5.660;2023-12-14T14:07:10;5.30;99.90
52495;DHT22;38405;53.212;5.660;2023-12-14T14:09:36;5.20;99.90
52495;DHT22;38405;53.212;5.660;2023-12-14T14:12:01;5.20;99.90
52495;DHT22;38405;53.212;5.660;2023-12-14T14:14:29;5.20;99.90
52495;DHT22;38405;53.212;5.660;2023-12-14T14:16:55;5.20;99.90
52495;DHT22;38405;53.212;5.660;2023-12-14T14:19:20;5.30;99.90
52495;DHT22;38405;53.212;5.660;2023-12-14T14:21:46;5.20;99.90
52495;DHT22;38405;53.212;5.660;2023-12-14T14:24:13;5.10;99.90
52495;DHT22;38405;53.212;5.660;2023-12-14T14:26:39;5.10;99.90
52495;DHT22;38405;53.212;5.660;2023-12-14T14:29:04;5.10;99.90
52495;DHT22;38405;53.212;5.660;2023-12-14T14:31:30;5.10;99.90
52495;DHT22;38405;53.212;5.660;2023-12-14T14:34:00;5.20;99.90
52495;DHT22;38405;53.212;5.660;2023-12-14T14:36:26;5.20;99.90
52495;DHT22;38405;53.212;5.660;2023-12-14T14:38:52;5.20;99.90
52495;DHT22;38405;53.212;5.660;2023-12-14T14:41:20;5.20;99.90
52495;DHT22;38405;53.212;5.660;2023-12-14T14:43:46;5.10;99.90
52495;DHT22;38405;53.212;5.660;2023-12-14T14:46:12;5.60;99.90
52495;DHT22;38405;53.212;5.660;2023-12-14T14:48:38;5.20;99.90
52495;DHT22;38405;53.212;5.660;2023-12-14T14:51:04;5.20;99.90
52495;DHT22;38405;53.212;5.660;2023-12-14T14:53:30;5.20;99.90
52495;DHT22;38405;53.212;5.660;2023-12-14T14:55:55;5.20;99.90
52495;DHT22;38405;53.212;5.660;2023-12-14T14:58:22;5.30;99.90
52495;DHT22;38405;53.212;5.660;2023-12-14T15:00:47;5.30;99.90
52495;DHT22;38405;53.212;5.660;2023-12-14T15:03:13;5.30;99.90
52495;DHT22;38405;53.212;5.660;2023-12-14T15:05:42;5.30;99.90
52495;DHT22;38405;53.212;5.660;2023-12-14T15:08:08;5.30;99.90
52495;DHT22;38405;53.212;5.660;2023-12-14T15:10:34;5.30;99.90
52495;DHT22;38405;53.212;5.660;2023-12-14T15:12:59;5.30;99.90
52495;DHT22;38405;53.212;5.660;2023-12-14T15:15:25;5.50;99.90
52495;DHT22;38405;53.212;5.660;2023-12-14T15:17:51;5.30;99.90
52495;DHT22;38405;53.212;5.660;2023-12-14T15:20:17;5.60;99.90
52495;DHT22;38405;53.212;5.660;2023-12-14T15:22:42;5.40;99.90
52495;DHT22;38405;53.212;5.660;2023-12-14T15:25:08;5.60;99.90
52495;DHT22;38405;53.212;5.660;2023-12-14T15:27:34;5.30;99.90
52495;DHT22;38405;53.212;5.660;2023-12-14T15:30:00;5.70;99.90
52495;DHT22;38405;53.212;5.660;2023-12-14T15:32:26;5.30;99.90
52495;DHT22;38405;53.212;5.660;2023-12-14T15:34:51;5.20;99.90
52495;DHT22;38405;53.212;5.660;2023-12-14T15:37:17;5.20;99.90
52495;DHT22;38405;53.212;5.660;2023-12-14T15:39:43;5.40;99.90
52495;DHT22;38405;53.212;5.660;2023-12-14T15:42:17;5.10;99.90
52495;DHT22;38405;53.212;5.660;2023-12-14T15:44:43;5.10;99.90
52495;DHT22;38405;53.212;5.660;2023-12-14T15:47:13;5.00;99.90
52495;DHT22;38405;53.212;5.660;2023-12-14T15:49:41;5.10;99.90